Airfield :
LOGIN :

Register | Disclaimer

   EN    FR    IT 

 










Legend :    VFR   Marginal VFR   IFR   Intensive IFR   Very Intensive IFR
Visi :
Ceiling :
>= 8 km
>= 3000ft
5 to 8 km
1000 to 3000 ft
1500m to 5 km
500 to 1000 ft
800 to 1500m
200 to 500 ft
< 800m
< 200 ft
Symbols :   Thunderstorms  Fog  Heavy snow  Heavy precipitations  Wind > 20 kt
SIGMETs :     Misc.  Thunderstorms  Icing  Turbulence  Mountain Waves  Volcanic Ashes







- Airport Elevation : 1416 ft
- IATA code : ZRH


LSZH - Zurich

CURRENT METAR :
  • 200520Z 21003KT 8000 SCT007 SCT011 BKN050 09/08 Q1022 NOSIG

EXPIRED METARs :
  • 200450Z 21003KT 170V250 7000 -DZ SCT007 SCT009 BKN045 09/08 Q1022 NOSIG
  • 200420Z 21003KT 190V250 9999 FEW006 SCT009 BKN045 09/08 Q1022 NOSIG
  • 200350Z 20004KT 170V240 9999 FEW006 SCT010 BKN040 09/08 Q1022 NOSIG
  • 200320Z 19003KT 160V250 9999 FEW006 SCT010 BKN045 09/08 Q1022 NOSIG
  • 200250Z 19003KT 9999 SCT007 BKN035 09/08 Q1022 NOSIG

TAF TAF LSZH
Valid from the 20 at 06:00 until the 21 at 12:00 UTC


200525Z 2006/2112 VRB03KT 9999 FEW006 SCT009 BKN045 TX14/2014Z TN09/2006Z TN03/2105Z
PROB30
TEMPO 2006/2010 SHRA BKN010
BECMG 2020/2022 CAVOK
BECMG 2101/2103 1200 PRFG NSC
PROB40 2103/2107 0600 FG VV002
BECMG 2107/2109 8000
BECMG 2109/2111 04005KT CAVOK
ATIS : +41 43 816 2295 (DEP) +41 43 816 2294 (ARR)
No reported NOTAMs for that airfield.



MET'MAP, your aeronautical weather chart ! - Copyright ORBIFLY December 2007 - Disclaimer

ORBIFLY MET'MAP TEAM :

Programming & Development : Alexandra Zaïnal
Concept & Development : Baudouin d'Aumeries
Co-Development & Prog : Marc-Olivier Méhu
Technical & hardware support : Manuel Goepfert

Contact : metmap@orbifly.com




SOURCES & CREDITS :

   NOAA